createdAt,value
2024-03-11T00:00:47.776Z,5.21
2024-03-11T00:03:36.360Z,5.17
2024-03-11T00:06:04.091Z,5.08
2024-03-11T00:08:33.230Z,5.07
2024-03-11T00:11:06.163Z,4.81
2024-03-11T00:13:34.285Z,4.94
2024-03-11T00:16:02.530Z,5.10
2024-03-11T00:18:30.855Z,5.03
2024-03-11T00:20:58.504Z,4.93
2024-03-11T00:23:27.239Z,5.00
2024-03-11T00:25:54.298Z,4.98
2024-03-11T00:28:21.763Z,4.85
2024-03-11T00:30:48.822Z,4.86
2024-03-11T00:33:19.004Z,4.89
2024-03-11T00:35:47.884Z,4.77
2024-03-11T00:38:15.204Z,4.89
2024-03-11T00:40:42.423Z,4.88
2024-03-11T00:43:09.858Z,4.67
2024-03-11T00:45:40.927Z,4.71
2024-03-11T00:48:13.168Z,4.58
2024-03-11T00:50:41.219Z,4.47
2024-03-11T00:53:08.851Z,4.43
2024-03-11T00:55:35.890Z,4.24
2024-03-11T00:58:03.264Z,4.24
2024-03-11T01:00:32.255Z,4.20
2024-03-11T01:03:02.626Z,4.24
2024-03-11T01:05:32.954Z,4.24
2024-03-11T01:08:00.394Z,4.17
2024-03-11T01:10:28.479Z,4.04
2024-03-11T01:12:57.453Z,4.10
2024-03-11T01:15:25.515Z,3.95
2024-03-11T01:17:53.097Z,3.99
2024-03-11T01:20:22.185Z,4.01
2024-03-11T01:22:50.621Z,3.81
2024-03-11T01:25:21.421Z,3.92
2024-03-11T01:27:50.057Z,3.86
2024-03-11T01:30:17.018Z,3.98
2024-03-11T01:32:46.498Z,4.12
2024-03-11T01:35:15.153Z,4.11
2024-03-11T01:37:45.129Z,4.13
2024-03-11T01:40:15.543Z,4.01
2024-03-11T01:42:44.549Z,3.99
2024-03-11T01:45:15.711Z,3.91
2024-03-11T01:47:44.778Z,3.94
2024-03-11T01:50:15.706Z,4.04
2024-03-11T01:53:04.751Z,3.98
2024-03-11T01:55:32.930Z,4.05
2024-03-11T01:58:02.456Z,4.03
2024-03-11T02:00:30.397Z,3.90
2024-03-11T02:02:58.178Z,3.93
2024-03-11T02:05:27.539Z,4.03
2024-03-11T02:08:01.148Z,4.08
2024-03-11T02:10:29.340Z,4.14
2024-03-11T02:13:00.663Z,4.04
2024-03-11T02:15:28.589Z,4.02
2024-03-11T02:17:56.225Z,3.93
2024-03-11T02:20:23.769Z,4.00
2024-03-11T02:22:57.305Z,3.98
2024-03-11T02:25:30.104Z,3.96
2024-03-11T02:28:02.333Z,3.87
2024-03-11T02:30:29.636Z,3.71
2024-03-11T02:32:58.101Z,3.41
2024-03-11T02:35:25.747Z,3.42
2024-03-11T02:37:54.206Z,3.75
2024-03-11T02:40:28.073Z,3.83
2024-03-11T02:42:56.020Z,3.85
2024-03-11T02:45:27.262Z,3.66
2024-03-11T02:47:55.110Z,3.77
2024-03-11T02:50:22.679Z,3.76
2024-03-11T02:52:50.100Z,3.71
2024-03-11T02:55:20.018Z,3.74
2024-03-11T02:57:50.501Z,3.68
2024-03-11T03:00:18.912Z,3.70
2024-03-11T03:02:50.962Z,3.53
2024-03-11T03:05:19.082Z,3.74
2024-03-11T03:07:48.105Z,3.64
2024-03-11T03:10:15.418Z,3.71
2024-03-11T03:12:45.984Z,3.78
2024-03-11T03:15:13.874Z,3.61
2024-03-11T03:17:41.538Z,3.55
2024-03-11T03:20:12.535Z,3.58
2024-03-11T03:22:40.141Z,3.58
2024-03-11T03:25:07.749Z,3.72
2024-03-11T03:27:36.435Z,3.67
2024-03-11T03:30:06.718Z,3.64
2024-03-11T03:32:34.716Z,3.45
2024-03-11T03:35:02.017Z,3.27
2024-03-11T03:37:29.547Z,3.52
2024-03-11T03:39:56.769Z,3.44
2024-03-11T03:42:24.685Z,3.37
2024-03-11T03:44:52.801Z,3.34
2024-03-11T03:47:22.522Z,3.31
2024-03-11T03:49:49.943Z,3.47
2024-03-11T03:52:17.414Z,3.72
2024-03-11T03:54:44.369Z,3.72
2024-03-11T03:57:11.906Z,3.79
2024-03-11T03:59:39.107Z,3.57
2024-03-11T04:02:09.150Z,3.83
2024-03-11T04:04:40.848Z,3.92
2024-03-11T04:07:08.861Z,3.74
2024-03-11T04:09:36.532Z,3.97
2024-03-11T04:12:05.050Z,3.93
2024-03-11T04:14:32.397Z,3.91
2024-03-11T04:17:00.040Z,3.81
2024-03-11T04:19:27.546Z,4.05
2024-03-11T04:21:54.920Z,3.74
2024-03-11T04:24:27.252Z,4.07
2024-03-11T04:26:54.931Z,4.00
2024-03-11T04:29:22.077Z,4.07
2024-03-11T04:31:49.670Z,4.02
2024-03-11T04:34:16.968Z,4.04
2024-03-11T04:36:44.362Z,4.17
2024-03-11T04:39:15.596Z,4.10
2024-03-11T04:41:50.661Z,4.19
2024-03-11T04:44:19.194Z,4.21
2024-03-11T04:46:47.733Z,4.19
2024-03-11T04:49:16.262Z,4.22
2024-03-11T04:51:43.978Z,4.25
2024-03-11T04:54:12.824Z,4.26
2024-03-11T04:56:40.287Z,4.18
2024-03-11T04:59:09.635Z,4.29
2024-03-11T05:01:37.520Z,4.16
2024-03-11T05:06:48.542Z,4.31
2024-03-11T05:09:17.469Z,4.19
2024-03-11T05:11:45.127Z,4.12
2024-03-11T05:14:16.861Z,4.01
2024-03-11T05:16:46.068Z,4.43
2024-03-11T05:19:18.620Z,4.44
2024-03-11T05:21:46.283Z,4.25
2024-03-11T05:24:25.933Z,4.35
2024-03-11T05:27:08.027Z,4.07
2024-03-11T05:29:36.357Z,4.31
2024-03-11T05:32:04.440Z,4.27
2024-03-11T05:34:31.840Z,4.30
2024-03-11T05:36:59.313Z,4.32
2024-03-11T05:39:26.987Z,4.33
2024-03-11T05:42:02.324Z,4.27
2024-03-11T05:44:30.913Z,4.24
2024-03-11T05:46:58.397Z,3.88
2024-03-11T05:49:27.951Z,3.91
2024-03-11T05:51:55.578Z,4.16
2024-03-11T05:54:25.485Z,3.67
2024-03-11T05:56:57.744Z,4.04
2024-03-11T05:59:25.466Z,4.19
2024-03-11T06:01:57.060Z,4.15
2024-03-11T06:04:28.820Z,4.07
2024-03-11T06:06:55.968Z,4.16
2024-03-11T06:09:23.374Z,4.21
2024-03-11T06:11:51.420Z,4.17
2024-03-11T06:14:19.322Z,4.06
2024-03-11T06:16:48.482Z,4.23
2024-03-11T06:19:21.393Z,4.24
2024-03-11T06:21:49.975Z,4.14
2024-03-11T06:24:18.721Z,4.07
2024-03-11T06:26:47.625Z,4.01
2024-03-11T06:29:17.952Z,4.25
2024-03-11T06:31:47.494Z,4.13
2024-03-11T06:34:17.091Z,4.28
2024-03-11T06:36:44.174Z,4.39
2024-03-11T06:39:11.758Z,4.41
2024-03-11T06:41:44.744Z,4.33
2024-03-11T06:44:17.820Z,4.30
2024-03-11T06:46:49.384Z,4.47
2024-03-11T06:49:18.141Z,4.43
2024-03-11T06:51:45.356Z,4.52
2024-03-11T06:54:12.778Z,4.33
2024-03-11T06:56:39.920Z,4.42
2024-03-11T06:59:07.375Z,4.51
2024-03-11T07:01:34.741Z,4.31
2024-03-11T07:04:02.614Z,4.42
2024-03-11T07:06:30.609Z,4.50
2024-03-11T07:09:02.148Z,4.49
2024-03-11T07:11:29.591Z,4.55
2024-03-11T07:13:57.358Z,4.64
2024-03-11T07:16:25.336Z,4.32
2024-03-11T07:18:56.385Z,4.44
2024-03-11T07:21:29.360Z,4.49
2024-03-11T07:23:57.468Z,4.73
2024-03-11T07:26:25.093Z,4.77
2024-03-11T07:28:56.668Z,4.86
2024-03-11T07:34:11.546Z,4.58
2024-03-11T07:36:39.477Z,4.86
2024-03-11T07:39:07.517Z,4.88
2024-03-11T07:41:36.646Z,4.76
2024-03-11T07:44:08.100Z,4.96
2024-03-11T07:46:37.091Z,4.87
2024-03-11T07:49:07.583Z,4.97
2024-03-11T07:51:35.754Z,5.08
2024-03-11T07:54:06.570Z,4.98
2024-03-11T07:56:33.612Z,5.28
2024-03-11T07:59:03.023Z,5.19
2024-03-11T08:01:34.199Z,5.51
2024-03-11T08:04:02.012Z,5.33
2024-03-11T08:06:31.859Z,5.65
2024-03-11T08:08:59.567Z,5.70
2024-03-11T08:11:27.314Z,5.86
2024-03-11T08:13:54.888Z,5.61
2024-03-11T08:16:23.167Z,5.95
2024-03-11T08:18:50.591Z,5.72
2024-03-11T08:24:16.742Z,6.14
2024-03-11T08:26:46.450Z,6.18
2024-03-11T08:29:13.768Z,6.04
2024-03-11T08:31:41.188Z,6.13
2024-03-11T08:34:17.416Z,6.17
2024-03-11T08:36:45.757Z,6.23
2024-03-11T08:39:13.038Z,6.22
2024-03-11T08:41:50.798Z,6.39
2024-03-11T08:44:19.782Z,6.27
2024-03-11T08:46:48.839Z,6.09
2024-03-11T08:49:16.597Z,6.21
2024-03-11T08:51:44.089Z,6.36
2024-03-11T08:54:11.242Z,6.30
2024-03-11T08:56:41.059Z,6.51
2024-03-11T08:59:17.131Z,6.50
2024-03-11T09:01:46.083Z,6.29
2024-03-11T09:04:13.242Z,6.58
2024-03-11T09:06:45.077Z,6.44
2024-03-11T09:09:26.421Z,6.37
2024-03-11T09:11:58.247Z,6.37
2024-03-11T09:15:20.278Z,6.73
2024-03-11T09:21:05.035Z,6.80
2024-03-11T09:23:39.827Z,6.55
2024-03-11T09:26:14.582Z,6.86
2024-03-11T09:29:29.721Z,6.88
2024-03-11T09:32:11.713Z,7.03
2024-03-11T09:34:56.111Z,7.09
2024-03-11T09:37:43.174Z,6.96
2024-03-11T09:40:16.848Z,7.16
2024-03-11T09:42:52.575Z,6.89
2024-03-11T09:48:12.954Z,7.11
2024-03-11T09:50:43.437Z,7.10
2024-03-11T09:53:20.425Z,7.44
2024-03-11T09:55:49.202Z,7.55
2024-03-11T09:58:20.689Z,7.46
2024-03-11T10:00:59.453Z,7.68
2024-03-11T10:03:29.672Z,7.72
2024-03-11T10:08:44.665Z,7.61
2024-03-11T10:11:35.738Z,7.66
2024-03-11T10:17:31.207Z,7.71
2024-03-11T10:20:01.345Z,7.67
2024-03-11T10:22:32.728Z,7.63
2024-03-11T10:24:59.954Z,7.71
2024-03-11T10:27:41.179Z,7.93
2024-03-11T10:30:26.378Z,8.06
2024-03-11T10:32:57.158Z,7.79
2024-03-11T10:35:28.161Z,7.82
2024-03-11T10:38:12.267Z,7.68
2024-03-11T10:40:40.086Z,7.77
2024-03-11T10:43:30.043Z,8.01
2024-03-11T10:46:00.326Z,8.01
2024-03-11T10:48:30.843Z,7.92
2024-03-11T10:50:59.245Z,7.73
2024-03-11T10:53:27.385Z,7.71
2024-03-11T10:55:58.435Z,7.92
2024-03-11T10:58:30.111Z,7.87
2024-03-11T11:01:02.340Z,8.01
2024-03-11T11:03:33.582Z,8.10
2024-03-11T11:06:04.942Z,7.81
2024-03-11T11:08:38.760Z,8.24
2024-03-11T11:11:07.994Z,7.85
2024-03-11T11:13:38.236Z,8.25
2024-03-11T11:16:08.847Z,8.10
2024-03-11T11:18:40.888Z,8.11
2024-03-11T11:21:34.252Z,8.29
2024-03-11T11:24:58.010Z,8.28
2024-03-11T11:27:26.135Z,7.97
2024-03-11T11:29:55.334Z,7.94
2024-03-11T11:32:31.916Z,8.09
2024-03-11T11:35:00.719Z,7.98
2024-03-11T11:37:35.487Z,8.22
2024-03-11T11:40:33.220Z,8.27
2024-03-11T11:43:01.302Z,8.16
2024-03-11T11:45:57.440Z,8.15
2024-03-11T11:48:28.103Z,8.08
2024-03-11T11:51:00.576Z,8.41
2024-03-11T11:53:45.645Z,8.29
2024-03-11T11:56:32.440Z,8.22
2024-03-11T11:59:06.296Z,8.53
2024-03-11T12:01:47.422Z,8.15
2024-03-11T12:04:18.871Z,8.43
2024-03-11T12:06:53.116Z,8.38
2024-03-11T12:09:21.284Z,8.51
2024-03-11T12:11:50.505Z,8.57
2024-03-11T12:14:18.320Z,8.66
2024-03-11T12:16:45.956Z,8.61
2024-03-11T12:19:13.184Z,8.73
2024-03-11T12:21:42.776Z,8.56
2024-03-11T12:24:14.077Z,8.62
2024-03-11T12:26:46.957Z,8.77
2024-03-11T12:29:15.580Z,8.45
2024-03-11T12:31:55.290Z,8.50
2024-03-11T12:34:26.100Z,8.64
2024-03-11T12:36:56.148Z,9.15
2024-03-11T12:39:35.522Z,9.25
2024-03-11T12:42:03.250Z,9.13
2024-03-11T12:44:33.337Z,9.08
2024-03-11T12:47:02.725Z,9.37
2024-03-11T12:49:30.852Z,9.24
2024-03-11T12:52:10.147Z,9.53
2024-03-11T12:54:40.101Z,9.26
2024-03-11T12:57:13.636Z,9.41
2024-03-11T13:00:01.453Z,9.12
2024-03-11T13:02:29.495Z,8.99
2024-03-11T13:05:11.868Z,9.29
2024-03-11T13:07:40.424Z,9.20
2024-03-11T13:13:21.428Z,8.91
2024-03-11T13:15:51.610Z,9.10
2024-03-11T13:18:20.104Z,8.82
2024-03-11T13:20:52.161Z,9.02
2024-03-11T13:26:11.784Z,8.75
2024-03-11T13:28:43.009Z,8.85
2024-03-11T13:31:15.003Z,8.74
2024-03-11T13:36:31.267Z,8.85
2024-03-11T13:39:01.597Z,8.58
2024-03-11T13:41:30.791Z,8.57
2024-03-11T13:44:01.210Z,8.41
2024-03-11T13:46:29.036Z,8.34
2024-03-11T13:48:56.675Z,8.67
2024-03-11T13:51:27.894Z,8.65
2024-03-11T13:53:55.833Z,8.50
2024-03-11T13:56:26.644Z,8.44
2024-03-11T13:58:54.752Z,8.30
2024-03-11T14:01:26.074Z,8.47
2024-03-11T14:03:53.914Z,8.31
2024-03-11T14:06:21.884Z,8.45
2024-03-11T14:08:49.471Z,8.14
2024-03-11T14:11:19.763Z,8.16
2024-03-11T14:14:15.374Z,8.14
2024-03-11T14:16:50.657Z,8.42
2024-03-11T14:19:21.846Z,8.36
2024-03-11T14:21:51.996Z,8.28
2024-03-11T14:24:21.840Z,8.16
2024-03-11T14:26:49.403Z,8.16
2024-03-11T14:29:17.260Z,8.07
2024-03-11T14:31:48.457Z,8.27
2024-03-11T14:34:15.929Z,8.13
2024-03-11T14:36:45.431Z,8.11
2024-03-11T14:39:23.098Z,8.06
2024-03-11T14:41:50.639Z,8.00
2024-03-11T14:44:18.184Z,8.00
2024-03-11T14:46:57.011Z,7.86
2024-03-11T14:49:27.915Z,8.05
2024-03-11T14:51:56.720Z,8.05
2024-03-11T14:54:28.265Z,7.73
2024-03-11T14:56:58.291Z,7.75
2024-03-11T14:59:26.120Z,7.90
2024-03-11T15:01:58.341Z,7.75
2024-03-11T15:04:26.840Z,7.55
2024-03-11T15:06:55.050Z,7.94
2024-03-11T15:09:23.499Z,7.69
2024-03-11T15:11:55.834Z,7.82
2024-03-11T15:14:23.403Z,7.84
2024-03-11T15:16:57.057Z,7.84
2024-03-11T15:19:25.649Z,7.72
2024-03-11T15:21:53.417Z,7.69
2024-03-11T15:24:22.499Z,7.83
2024-03-11T15:26:50.225Z,7.54
2024-03-11T15:29:18.230Z,7.78
2024-03-11T15:31:46.340Z,7.53
2024-03-11T15:34:16.700Z,7.64
2024-03-11T15:36:44.305Z,7.63
2024-03-11T15:39:20.610Z,7.62
2024-03-11T15:41:48.301Z,7.74
2024-03-11T15:44:15.335Z,7.66
2024-03-11T15:46:43.176Z,7.57
2024-03-11T15:49:12.100Z,7.47
2024-03-11T15:51:40.637Z,7.66
2024-03-11T15:54:10.672Z,7.74
2024-03-11T15:56:38.643Z,7.80
2024-03-11T15:59:08.499Z,7.70
2024-03-11T16:01:37.359Z,7.71
2024-03-11T16:04:06.576Z,7.78
2024-03-11T16:06:35.322Z,7.71
2024-03-11T16:09:03.515Z,7.50
2024-03-11T16:11:37.128Z,7.69
2024-03-11T16:14:04.318Z,7.59
2024-03-11T16:16:32.063Z,7.44
2024-03-11T16:18:59.710Z,7.40
2024-03-11T16:21:34.197Z,7.58
2024-03-11T16:24:03.425Z,7.43
2024-03-11T16:26:36.207Z,7.38
2024-03-11T16:29:05.048Z,7.34
2024-03-11T16:31:34.821Z,7.53
2024-03-11T16:34:01.952Z,7.27
2024-03-11T16:36:34.487Z,7.42
2024-03-11T16:39:02.755Z,7.25
2024-03-11T16:41:31.115Z,7.41
2024-03-11T16:44:03.447Z,7.37
2024-03-11T16:46:36.826Z,7.27
2024-03-11T16:49:05.033Z,7.20
2024-03-11T16:51:33.589Z,7.17
2024-03-11T16:54:00.909Z,7.23
2024-03-11T16:56:33.404Z,7.10
2024-03-11T16:59:03.625Z,7.16
2024-03-11T17:01:34.836Z,7.04
2024-03-11T17:04:05.059Z,6.98
2024-03-11T17:06:33.212Z,6.72
2024-03-11T17:09:00.796Z,6.71
2024-03-11T17:11:29.589Z,6.41
2024-03-11T17:13:56.868Z,6.41
2024-03-11T17:16:27.480Z,6.17
2024-03-11T17:18:56.948Z,6.38
2024-03-11T17:21:28.136Z,6.19
2024-03-11T17:23:55.721Z,6.35
2024-03-11T17:26:23.787Z,6.36
2024-03-11T17:28:52.065Z,6.26
2024-03-11T17:31:25.195Z,6.12
2024-03-11T17:33:52.811Z,6.02
2024-03-11T17:42:03.262Z,6.17
2024-03-11T17:44:31.178Z,6.29
2024-03-11T17:46:59.560Z,6.47
2024-03-11T17:49:28.560Z,6.51
2024-03-11T17:54:39.107Z,6.36
2024-03-11T17:57:07.279Z,6.29
2024-03-11T17:59:36.954Z,6.41
2024-03-11T18:02:06.728Z,6.48
2024-03-11T18:04:34.521Z,6.46
2024-03-11T18:07:01.644Z,6.18
2024-03-11T18:09:33.214Z,6.28
2024-03-11T18:12:04.878Z,6.27
2024-03-11T18:17:14.664Z,6.13
2024-03-11T18:19:42.382Z,6.12
2024-03-11T18:22:11.141Z,6.17
2024-03-11T18:24:38.856Z,6.28
2024-03-11T18:27:06.798Z,6.07
2024-03-11T18:29:36.607Z,5.86
2024-03-11T18:32:11.231Z,5.90
2024-03-11T18:34:38.944Z,6.15
2024-03-11T18:37:12.554Z,6.09
2024-03-11T18:39:42.944Z,5.89
2024-03-11T18:42:13.370Z,5.90
2024-03-11T18:44:43.348Z,5.83
2024-03-11T18:49:56.525Z,5.97
2024-03-11T18:52:23.619Z,5.93
2024-03-11T18:54:51.501Z,5.62
2024-03-11T18:57:18.784Z,5.84
2024-03-11T18:59:46.432Z,5.74
2024-03-11T19:02:15.552Z,5.77
2024-03-11T19:04:42.918Z,5.67
2024-03-11T19:07:13.580Z,5.69
2024-03-11T19:09:42.840Z,5.69
2024-03-11T19:12:10.010Z,5.70
2024-03-11T19:14:37.787Z,5.56
2024-03-11T19:17:05.668Z,5.87
2024-03-11T19:19:36.614Z,5.77
2024-03-11T19:22:05.737Z,5.71
2024-03-11T19:24:33.687Z,5.52
2024-03-11T19:27:04.370Z,5.71
2024-03-11T19:33:47.664Z,5.57
2024-03-11T19:36:19.356Z,5.54
2024-03-11T19:39:02.357Z,5.75
2024-03-11T19:42:15.545Z,5.71
2024-03-11T19:44:55.368Z,5.68
2024-03-11T19:48:10.435Z,5.48
2024-03-11T19:51:15.017Z,5.63
2024-03-11T19:54:04.484Z,5.61
2024-03-11T19:57:18.161Z,5.36
2024-03-11T20:00:35.747Z,5.53
2024-03-11T20:03:19.463Z,5.49
2024-03-11T20:06:35.265Z,5.39
2024-03-11T20:13:45.290Z,5.25
2024-03-11T20:16:52.496Z,5.36
2024-03-11T20:19:54.070Z,5.33
2024-03-11T20:26:43.695Z,5.28
2024-03-11T20:29:59.950Z,4.98
2024-03-11T20:33:07.449Z,5.25
2024-03-11T20:35:35.573Z,5.24
2024-03-11T20:38:04.457Z,5.03
2024-03-11T20:40:43.149Z,4.96
2024-03-11T20:43:12.846Z,4.84
2024-03-11T20:45:41.173Z,5.02
2024-03-11T20:48:09.541Z,5.19
2024-03-11T20:50:38.972Z,5.03
2024-03-11T20:53:11.809Z,4.97
2024-03-11T20:55:39.482Z,5.11
2024-03-11T20:58:07.282Z,4.87
2024-03-11T21:00:36.078Z,5.03
2024-03-11T21:03:03.993Z,4.88
2024-03-11T21:05:34.346Z,4.90
2024-03-11T21:08:03.704Z,5.05
2024-03-11T21:10:32.752Z,4.98
2024-03-11T21:13:00.559Z,5.11
2024-03-11T21:15:28.163Z,4.89
2024-03-11T21:17:55.553Z,5.08
2024-03-11T21:20:23.052Z,4.89
2024-03-11T21:22:53.649Z,5.07
2024-03-11T21:25:43.809Z,5.21
2024-03-11T21:28:12.989Z,5.04
2024-03-11T21:30:40.776Z,5.33
2024-03-11T21:33:11.312Z,5.12
2024-03-11T21:35:38.745Z,5.07
2024-03-11T21:38:13.787Z,5.28
2024-03-11T21:40:49.859Z,5.10
2024-03-11T21:43:19.286Z,5.16
2024-03-11T21:45:47.097Z,5.24
2024-03-11T21:48:16.698Z,5.34
2024-03-11T21:50:47.018Z,5.25
2024-03-11T21:53:14.712Z,5.36
2024-03-11T21:55:48.379Z,5.39
2024-03-11T21:58:20.346Z,5.35
2024-03-11T22:00:48.105Z,5.25
2024-03-11T22:03:15.212Z,5.44
2024-03-11T22:05:42.760Z,5.25
2024-03-11T22:08:10.782Z,5.32
2024-03-11T22:10:39.396Z,5.27
2024-03-11T22:13:06.733Z,5.24
2024-03-11T22:15:34.462Z,5.46
2024-03-11T22:18:02.426Z,5.29
2024-03-11T22:20:30.709Z,5.46
2024-03-11T22:22:59.387Z,5.53
2024-03-11T22:25:28.379Z,5.54
2024-03-11T22:27:55.890Z,5.51
2024-03-11T22:30:24.823Z,5.52
2024-03-11T22:32:52.140Z,5.34
2024-03-11T22:35:20.028Z,5.35
2024-03-11T22:37:48.051Z,5.60
2024-03-11T22:40:17.494Z,5.55
2024-03-11T22:42:48.820Z,5.51
2024-03-11T22:45:17.491Z,5.41
2024-03-11T22:47:45.074Z,5.57
2024-03-11T22:50:12.519Z,5.57
2024-03-11T22:52:39.900Z,5.56
2024-03-11T22:55:10.442Z,5.44
2024-03-11T22:57:38.430Z,5.51
2024-03-11T23:00:26.323Z,5.48
2024-03-11T23:02:55.264Z,5.46
2024-03-11T23:05:22.847Z,5.36
2024-03-11T23:07:50.159Z,5.35
2024-03-11T23:10:18.259Z,5.17
2024-03-11T23:12:45.774Z,5.39
2024-03-11T23:15:15.553Z,5.49
2024-03-11T23:17:42.806Z,5.46
2024-03-11T23:20:11.297Z,5.44
2024-03-11T23:22:38.979Z,5.49
2024-03-11T23:25:07.762Z,5.51
2024-03-11T23:27:35.029Z,5.20
2024-03-11T23:30:02.636Z,5.41
2024-03-11T23:32:29.786Z,5.35
2024-03-11T23:34:57.426Z,5.45
2024-03-11T23:37:24.504Z,5.51
2024-03-11T23:39:52.164Z,5.41
2024-03-11T23:42:19.329Z,5.44
2024-03-11T23:44:46.960Z,5.57
2024-03-11T23:47:16.472Z,5.43
2024-03-11T23:49:46.082Z,5.44
2024-03-11T23:52:17.344Z,5.56
2024-03-11T23:54:45.928Z,5.41
2024-03-11T23:57:13.933Z,5.49
2024-03-11T23:59:42.846Z,5.48
